Home > Products > Valid Products > MTR

000
SAUS41 KCAR 281558
MTRGNR
METAR KGNR 281556Z AUTO 32015G26KT M13/M17 A2980 RMK AO1 PK WND
32026/1548 SLP125 P0001 T11331167





000
SAUS41 KCAR 281458
MTRGNR
METAR KGNR 281456Z AUTO 33009G17KT M13/M17 A2980 RMK AO1 SLP124
60001 T11331167 51027





000
SAUS41 KCAR 281358
MTRGNR
METAR KGNR 281356Z AUTO 31007G15KT 270V340 M14/M17 A2977 RMK AO1
SLP115 T11441172





000
SAUS41 KCAR 281358
MTRGNR
METAR KGNR 281356Z AUTO 31007G15KT 270V340 M14/M17 A2977 RMK AO1
SLP115 T11441172





000
SAUS41 KCAR 281257
MTRGNR
METAR KGNR 281256Z AUTO 32011G20KT 280V350 M15/M17 A2975 RMK AO1
SLP108 P0001 T11501172





000
SAUS41 KCAR 281157
MTRGNR
METAR KGNR 281156Z AUTO 35011G23KT M15/M17 A2971 RMK AO1 PK WND
34027/1111 SLP097 P0002 60010 70106 T11501172 11144 21150 53024





000
SAUS41 KCAR 281058
MTRGNR
METAR KGNR 281056Z AUTO 33011G22KT M15/M17 A2969 RMK AO1 PK WND
33026/1002 SLP087 P0002 T11501167





000
SAUS41 KCAR 280957
MTRGNR
METAR KGNR 280956Z AUTO 34017G29KT M14/M17 A2966 RMK AO1 PK WND
34029/0953 SLP079 T11441172





000
SAUS41 KCAR 280957
MTRGNR
METAR KGNR 280956Z AUTO 34017G29KT M14/M17 A2966 RMK AO1 PK WND
34029/0953 SLP079 T11441172





000
SAUS41 KCAR 280858
MTRGNR
METAR KGNR 280856Z AUTO 32009G22KT 280V350 M14/M17 A2964 RMK AO1
SLP071 P0001 60006 T11441172 53014





000
SAUS41 KCAR 280858
MTRGNR
METAR KGNR 280856Z AUTO 32009G22KT 280V350 M14/M17 A2964 RMK AO1
SLP071 P0001 60006 T11441172 53014





000
SAUS41 KCAR 280757
MTRGNR
METAR KGNR 280756Z AUTO 34016G24KT M15/M17 A2962 RMK AO1 PK WND
34028/0657 SLP066 P0002 T11501167





000
SAUS41 KCAR 280658
MTRGNR
METAR KGNR 280656Z AUTO 34015G25KT M14/M17 A2961 RMK AO1 SLP062
P0003 T11441172





000
SAUS41 KCAR 280658
MTRGNR
METAR KGNR 280656Z AUTO 34015G25KT M14/M17 A2961 RMK AO1 SLP062
P0003 T11441172





000
SAUS41 KCAR 280557
MTRGNR
METAR KGNR 280556Z AUTO 35014G23KT M15/M17 A2960 RMK AO1 SLP058
60025 T11501172 11144 21156 51002





000
SAUS41 KCAR 280557
MTRGNR
METAR KGNR 280556Z AUTO 35014G23KT M15/M17 A2960 RMK AO1 SLP058
60025 T11501172 11144 21156 51002





000
SAUS41 KCAR 280458
MTRGNR
METAR KGNR 280456Z AUTO 34012G20KT M15/M17 A2959 RMK AO1 SLP057
P0006 T11501172 411441178





000
SAUS41 KCAR 280357
MTRGNR
METAR KGNR 280356Z AUTO 34015G25KT M15/M17 A2960 RMK AO1 PK WND
33028/0324 SLP061 P0004 T11501172





000
SAUS41 KCAR 280258
MTRGNR
METAR KGNR 280256Z AUTO 35013G25KT M15/M17 A2959 RMK AO1 PK WND
35032/0212 SLP057 P0007 60015 T11501167 56007





000
SAUS41 KCAR 280258
MTRGNR
METAR KGNR 280256Z AUTO 35013G25KT M15/M17 A2959 RMK AO1 PK WND
35032/0212 SLP057 P0007 60015 T11501167 56007





000
SAUS41 KCAR 280157
MTRGNR
METAR KGNR 280156Z AUTO 35020G34KT M15/M17 A2959 RMK AO1 PK WND
34034/0151 SLP056 P0003 T11501172





000
SAUS41 KCAR 280058
MTRGNR
METAR KGNR 280056Z AUTO 36017G26KT M15/M18 A2961 RMK AO1 PK WND
36031/2357 SLP062 P0005 T11501178





000
SAUS41 KCAR 272357
MTRGNR
METAR KGNR 272356Z AUTO 35017G31KT M16/M18 A2961 RMK AO1 PK WND
34031/2349 SLP064 P0005 60035 T11561178 11156 21167 51005





000
SAUS41 KCAR 272258
MTRGNR
METAR KGNR 272256Z AUTO 36020G30KT M16/M18 A2961 RMK AO1 PK WND
36033/2238 SLP063 P0007 T11561178





000
SAUS41 KCAR 272157
MTRGNR
METAR KGNR 272156Z AUTO 36020G29KT M16/M18 A2960 RMK AO1 PK WND
34033/2109 SLP059 P0010 T11611183





000
SAUS41 KCAR 272057
MTRGNR
METAR KGNR 272056Z AUTO 36021G36KT M16/M19 A2960 RMK AO1 PK WND
36036/2053 SLP057 P0005 60013 T11611189 56020





000
SAUS41 KCAR 271958
MTRGNR
METAR KGNR 271956Z AUTO 35015G27KT M17/M19 A2962 RMK AO1 PK WND
36028/1920 SLP066 P0004 T11671189





000
SAUS41 KCAR 271857
MTRGNR
METAR KGNR 271856Z AUTO 35017G32KT M17/M19 A2962 RMK AO1 PK WND
35032/1853 SLP065 P0004 T11671189





000
SAUS41 KCAR 271758
MTRGNR
METAR KGNR 271756Z AUTO 35012G22KT M17/M19 A2966 RMK AO1 SLP079
P0008 60036 T11671189 11156 21178 56038





000
SAUS41 KCAR 271657
MTRGNR
METAR KGNR 271656Z AUTO 35014G20KT M17/M19 A2970 RMK AO1 PRESFR
SLP092 P0011 T11671189





000
SAUS41 KCAR 271558
MTRGNR
METAR KGNR 271556Z AUTO 35015G23KT M17/M19 A2973 RMK AO1 PRESFR
SLP105 P0008 T11721194





000
SAUS41 KCAR 271457
MTRGNR
METAR KGNR 271456Z AUTO 35013G20KT M17/M20 A2978 RMK AO1 SLP119
P0007 60009 T11721200 56028





000
SAUS41 KCAR 271358
MTRGNR
METAR KGNR 271356Z AUTO 01011G19KT M17/M20 A2981 RMK AO1 SLP130
P0002 T11671200





000
SAUS41 KCAR 271257
MTRGNR
METAR KGNR 271256Z AUTO 36013G18KT M16/M23 A2983 RMK AO1 SLP137
T11611233





000
SAUS41 KCAR 271157
MTRGNR
METAR KGNR 271156Z AUTO VRB03KT M16/M23 A2986 RMK AO1 SLP148
T11561233 11144 21156 58022





000
SAUS41 KCAR 271058
MTRGNR
METAR KGNR 271056Z AUTO 35008KT M16/M23 A2989 RMK AO1 SLP157
T11561233





000
SAUS41 KCAR 270957
MTRGNR
METAR KGNR 270956Z AUTO 03013G19KT M14/M24 A2992 RMK AO1 SLP168
T11441244





000
SAUS41 KCAR 270957
MTRGNR
METAR KGNR 270956Z AUTO 03013G19KT M14/M24 A2992 RMK AO1 SLP168
T11441244





000
SAUS41 KCAR 270858
MTRGNR
METAR KGNR 270856Z AUTO 05013G26KT M14/M25 A2993 RMK AO1 PK WND
07026/0856 SLP170 T11441250 58025





000
SAUS41 KCAR 270757
MTRGNR
METAR KGNR 270756Z AUTO 05008G15KT M14/M24 A2996 RMK AO1 SLP180
T11441239





000
SAUS41 KCAR 270658
MTRGNR
METAR KGNR 270656Z AUTO 04012G19KT M14/M24 A3001 RMK AO1 SLP197
T11441244





000
SAUS41 KCAR 270557
MTRGNR
METAR KGNR 270556Z AUTO VRB06KT M14/M25 A3001 RMK AO1 SLP197
T11441250 11139 21150 58031





000
SAUS41 KCAR 270458
MTRGNR
METAR KGNR 270456Z AUTO 07008KT M14/M23 A3007 RMK AO1 SLP217
T11441233 411221206





000
SAUS41 KCAR 270357
MTRGNR
METAR KGNR 270356Z AUTO 10008KT M14/M23 A3009 RMK AO1 SLP227
T11441233





000
SAUS41 KCAR 270258
MTRGNR
METAR KGNR 270256Z AUTO 10003KT M14/M21 A3010 RMK AO1 SLP232
T11441211 58002





000
SAUS41 KCAR 270157
MTRGNR
METAR KGNR 270156Z AUTO 08005KT M14/M22 A3012 RMK AO1 SLP238
T11441222





000
SAUS41 KCAR 270058
MTRGNR
METAR KGNR 270056Z AUTO 10008KT M14/M23 A3012 RMK AO1 SLP238
T11441228





000
SAUS41 KCAR 262357
MTRGNR
METAR KGNR 262356Z AUTO 11003KT M14/M22 A3011 RMK AO1 SLP236
T11441222 11122 21150 53017





000
SAUS41 KCAR 262258
MTRGNR
METAR KGNR 262256Z AUTO 10003KT M14/M21 A3009 RMK AO1 SLP231
T11441211





000
SAUS41 KCAR 262157
MTRGNR
METAR KGNR 262156Z AUTO 34005KT M14/M22 A3007 RMK AO1 PRESFR SLP222
T11441222





000
SAUS41 KCAR 262057
MTRGNR
METAR KGNR 262056Z AUTO 31004KT M13/M23 A3006 RMK AO1 SLP217
T11281233 53004





000
SAUS41 KCAR 261958
MTRGNR
METAR KGNR 261956Z AUTO 33005KT M12/M23 A3003 RMK AO1 SLP207
T11221228





000
SAUS41 KCAR 261857
MTRGNR
METAR KGNR 261856Z AUTO VRB03KT M12/M23 A3003 RMK AO1 SLP206
T11221233





000
SAUS41 KCAR 261758
MTRGNR
METAR KGNR 261756Z AUTO VRB05KT M13/M24 A3004 RMK AO1 SLP212
T11331239 11133 21206 58005





000
SAUS41 KCAR 261657
MTRGNR
METAR KGNR 261656Z AUTO VRB05KT M14/M23 A3005 RMK AO1 SLP214
T11391233





000
SAUS41 KCAR 261557
MTRGNR
METAR KGNR 261556Z AUTO VRB06KT M16/M24 A3006 RMK AO1 SLP216
T11561239





000
SAUS41 KCAR 261457
MTRGNR
METAR KGNR 261456Z AUTO VRB04KT M17/M23 A3006 RMK AO1 SLP219
T11721228 53028





000
SAUS41 KCAR 261358
MTRGNR
METAR KGNR 261356Z AUTO 33011G16KT M19/M23 A3002 RMK AO1 SLP206
T11891233





000
SAUS41 KCAR 261257
MTRGNR
METAR KGNR 261256Z AUTO 35008KT M20/M23 A2999 RMK AO1 SLP197
T12001233





000
SAUS41 KCAR 261157
MTRGNR
METAR KGNR 261156Z AUTO 36007KT M21/M23 A2997 RMK AO1 SLP191 70001
T12061233 11178 21206 53018





000
SAUS41 KCAR 261058
MTRGNR
METAR KGNR 261056Z AUTO 35006KT M20/M23 A2995 RMK AO1 SLP183
T12001228





000
SAUS41 KCAR 260957
MTRGNR
METAR KGNR 260956Z AUTO VRB05KT M20/M23 A2994 RMK AO1 SLP178
T12001228





000
SAUS41 KCAR 260858
MTRGNR
METAR KGNR 260856Z AUTO VRB03KT M19/M22 A2992 RMK AO1 SLP171
T11941222 53028





000
SAUS41 KCAR 260757
MTRGNR
METAR KGNR 260756Z AUTO VRB06G18KT M19/M22 A2989 RMK AO1 SLP157
T11891222





000
SAUS41 KCAR 260658
MTRGNR
METAR KGNR 260656Z AUTO 32010G21KT M18/M22 A2986 RMK AO1 SLP147
T11831222





000
SAUS41 KCAR 260557
MTRGNR
METAR KGNR 260556Z AUTO 31007G21KT M18/M22 A2983 RMK AO1 SLP138
T11781217 11161 21178 51019





000
SAUS41 KCAR 260458
MTRGNR
METAR KGNR 260456Z AUTO 30010G20KT M17/M22 A2983 RMK AO1 SLP136
T11721217 410331172





000
SAUS41 KCAR 260357
MTRGNR
METAR KGNR 260356Z AUTO VRB06KT M17/M22 A2982 RMK AO1 SLP130
T11721217





000
SAUS41 KCAR 260258
MTRGNR
METAR KGNR 260256Z AUTO 29007KT 250V340 M17/M22 A2977 RMK AO1 SLP115
T11671217 53036





000
SAUS41 KCAR 260157
MTRGNR
METAR KGNR 260156Z AUTO 30010G26KT 260V340 M17/M21 A2972 RMK AO1 PK
WND 30026/0147 SLP095 T11671211





000
SAUS41 KCAR 260058
MTRGNR
METAR KGNR 260056Z AUTO 30008G22KT 240V340 M16/M21 A2968 RMK AO1
SLP080 T11611211





000
SAUS41 KCAR 252357
MTRGNR
METAR KGNR 252356Z AUTO 29008KT 210V320 M16/M21 A2966 RMK AO1 SLP074
T11611211 11100 21161 51046





000
SAUS41 KCAR 252258
MTRGNR
METAR KGNR 252256Z AUTO 30009G22KT M16/M21 A2962 RMK AO1 SLP059
T11611211





000
SAUS41 KCAR 252157
MTRGNR
METAR KGNR 252156Z AUTO 30007G22KT M16/M21 A2957 RMK AO1 SLP040
T11561206





000
SAUS41 KCAR 252057
MTRGNR
METAR KGNR 252056Z AUTO 29008G19KT 250V330 M14/M21 A2952 RMK AO1
PRESRR SLP024 T11441206 53040





000
SAUS41 KCAR 251958
MTRGNR
METAR KGNR 251956Z AUTO 30010G20KT M13/M20 A2946 RMK AO1 SLP004
T11281200





000
SAUS41 KCAR 251857
MTRGNR
METAR KGNR 251856Z AUTO 30007G19KT 250V340 M11/M19 A2943 RMK AO1 PK
WND 32026/1835 SLP992 T11111189





000
SAUS41 KCAR 251758
MTRGNR
METAR KGNR 251756Z AUTO 30008G15KT 260V330 M10/M18 A2940 RMK AO1
SLP979 60001 T11001178 11039 21106 53019





000
SAUS41 KCAR 251658
MTRGNR
METAR KGNR 251656Z AUTO 31011G19KT M09/M17 A2938 RMK AO1 SLP972
T10941172





    US Dept of Commerce
    National Oceanic and Atmospheric Administration
    National Weather Service
    1325 East West Highway
    Silver Spring, MD 20910
    Page Author: NWS Internet Services Team
Disclaimer
Information Quality
Credits
Glossary
Privacy Policy
Freedom of Information Act (FOIA)
About Us
Career Opportunities